sensor_id;sensor_type;location;lat;lon;timestamp;temperature;humidity
25825;DHT22;13658;44.534;18.694;2022-09-20T00:01:23;5.40;99.90
25825;DHT22;13658;44.534;18.694;2022-09-20T00:03:52;5.40;99.90
25825;DHT22;13658;44.534;18.694;2022-09-20T00:06:21;5.40;99.90
25825;DHT22;13658;44.534;18.694;2022-09-20T00:08:48;5.30;99.90
25825;DHT22;13658;44.534;18.694;2022-09-20T00:11:19;5.30;99.90
25825;DHT22;13658;44.534;18.694;2022-09-20T00:13:47;5.30;99.90
25825;DHT22;13658;44.534;18.694;2022-09-20T00:16:17;5.20;99.90
25825;DHT22;13658;44.534;18.694;2022-09-20T00:18:47;5.20;99.90
25825;DHT22;13658;44.534;18.694;2022-09-20T00:21:19;5.20;99.90
25825;DHT22;13658;44.534;18.694;2022-09-20T00:23:45;5.20;99.90
25825;DHT22;13658;44.534;18.694;2022-09-20T00:26:11;5.20;99.90
25825;DHT22;13658;44.534;18.694;2022-09-20T00:28:39;5.30;99.90
25825;DHT22;13658;44.534;18.694;2022-09-20T00:31:05;5.30;99.90
25825;DHT22;13658;44.534;18.694;2022-09-20T00:33:32;5.30;99.90
25825;DHT22;13658;44.534;18.694;2022-09-20T00:36:17;5.40;99.90
25825;DHT22;13658;44.534;18.694;2022-09-20T00:38:43;5.60;99.90
25825;DHT22;13658;44.534;18.694;2022-09-20T00:41:09;5.60;99.90
25825;DHT22;13658;44.534;18.694;2022-09-20T00:43:41;5.70;99.90
25825;DHT22;13658;44.534;18.694;2022-09-20T00:48:51;5.50;99.90
25825;DHT22;13658;44.534;18.694;2022-09-20T00:51:28;5.40;99.90
25825;DHT22;13658;44.534;18.694;2022-09-20T00:53:55;5.40;99.90
25825;DHT22;13658;44.534;18.694;2022-09-20T00:56:35;5.40;99.90
25825;DHT22;13658;44.534;18.694;2022-09-20T01:01:54;5.30;99.90
25825;DHT22;13658;44.534;18.694;2022-09-20T01:04:23;5.30;99.90
25825;DHT22;13658;44.534;18.694;2022-09-20T01:06:52;5.30;99.90
25825;DHT22;13658;44.534;18.694;2022-09-20T01:09:19;5.30;99.90
25825;DHT22;13658;44.534;18.694;2022-09-20T01:11:45;5.30;99.90
25825;DHT22;13658;44.534;18.694;2022-09-20T01:14:14;5.30;99.90
25825;DHT22;13658;44.534;18.694;2022-09-20T01:16:43;5.30;99.90
25825;DHT22;13658;44.534;18.694;2022-09-20T01:19:23;5.30;99.90
25825;DHT22;13658;44.534;18.694;2022-09-20T01:21:52;5.30;99.90
25825;DHT22;13658;44.534;18.694;2022-09-20T01:24:29;5.30;99.90
25825;DHT22;13658;44.534;18.694;2022-09-20T01:30:12;5.30;99.90
25825;DHT22;13658;44.534;18.694;2022-09-20T01:32:42;5.30;99.90
25825;DHT22;13658;44.534;18.694;2022-09-20T01:35:10;5.30;99.90
25825;DHT22;13658;44.534;18.694;2022-09-20T01:40:29;5.30;99.90
25825;DHT22;13658;44.534;18.694;2022-09-20T01:43:07;5.40;99.90
25825;DHT22;13658;44.534;18.694;2022-09-20T01:45:43;5.40;99.90
25825;DHT22;13658;44.534;18.694;2022-09-20T02:04:58;5.00;99.90
25825;DHT22;13658;44.534;18.694;2022-09-20T02:13:28;5.20;99.90
25825;DHT22;13658;44.534;18.694;2022-09-20T02:16:04;5.20;99.90
25825;DHT22;13658;44.534;18.694;2022-09-20T02:18:41;5.20;99.90
25825;DHT22;13658;44.534;18.694;2022-09-20T02:32:27;5.00;99.90
25825;DHT22;13658;44.534;18.694;2022-09-20T02:35:09;5.10;99.90
25825;DHT22;13658;44.534;18.694;2022-09-20T02:37:56;5.10;99.90
25825;DHT22;13658;44.534;18.694;2022-09-20T02:52:29;5.00;99.90
25825;DHT22;13658;44.534;18.694;2022-09-20T02:57:53;4.90;99.90
25825;DHT22;13658;44.534;18.694;2022-09-20T03:00:30;4.80;99.90
25825;DHT22;13658;44.534;18.694;2022-09-20T03:09:24;4.90;99.90
25825;DHT22;13658;44.534;18.694;2022-09-20T03:18:18;4.80;99.90
25825;DHT22;13658;44.534;18.694;2022-09-20T03:21:41;4.80;99.90
25825;DHT22;13658;44.534;18.694;2022-09-20T03:46:31;5.00;99.90
25825;DHT22;13658;44.534;18.694;2022-09-20T04:00:19;4.80;99.90
25825;DHT22;13658;44.534;18.694;2022-09-20T04:09:10;4.70;99.90
25825;DHT22;13658;44.534;18.694;2022-09-20T04:12:09;4.80;99.90
25825;DHT22;13658;44.534;18.694;2022-09-20T04:17:40;4.70;99.90
25825;DHT22;13658;44.534;18.694;2022-09-20T04:20:18;4.70;99.90
25825;DHT22;13658;44.534;18.694;2022-09-20T04:22:49;4.80;99.90
25825;DHT22;13658;44.534;18.694;2022-09-20T04:25:37;4.60;99.90
25825;DHT22;13658;44.534;18.694;2022-09-20T04:29:08;4.60;99.90
25825;DHT22;13658;44.534;18.694;2022-09-20T04:33:51;4.60;99.90
25825;DHT22;13658;44.534;18.694;2022-09-20T04:50:53;4.70;99.90
25825;DHT22;13658;44.534;18.694;2022-09-20T05:02:36;4.80;99.90
25825;DHT22;13658;44.534;18.694;2022-09-20T05:13:56;4.80;99.90
25825;DHT22;13658;44.534;18.694;2022-09-20T05:16:57;4.50;99.90
25825;DHT22;13658;44.534;18.694;2022-09-20T05:37:02;4.90;99.90
25825;DHT22;13658;44.534;18.694;2022-09-20T05:42:43;4.90;99.90
25825;DHT22;13658;44.534;18.694;2022-09-20T05:45:30;5.00;99.90
25825;DHT22;13658;44.534;18.694;2022-09-20T05:51:34;5.20;99.90
25825;DHT22;13658;44.534;18.694;2022-09-20T05:54:14;5.50;99.90
25825;DHT22;13658;44.534;18.694;2022-09-20T06:18:17;6.50;99.90
25825;DHT22;13658;44.534;18.694;2022-09-20T06:23:20;6.50;99.90
25825;DHT22;13658;44.534;18.694;2022-09-20T06:25:54;6.50;99.90
25825;DHT22;13658;44.534;18.694;2022-09-20T06:28:39;6.70;99.90
25825;DHT22;13658;44.534;18.694;2022-09-20T06:31:06;6.70;99.90
25825;DHT22;13658;44.534;18.694;2022-09-20T06:33:49;6.80;99.90
25825;DHT22;13658;44.534;18.694;2022-09-20T06:36:32;6.90;99.90
25825;DHT22;13658;44.534;18.694;2022-09-20T06:42:17;8.10;99.90
25825;DHT22;13658;44.534;18.694;2022-09-20T06:44:43;8.30;99.90
25825;DHT22;13658;44.534;18.694;2022-09-20T06:47:09;8.40;99.90
25825;DHT22;13658;44.534;18.694;2022-09-20T06:49:36;8.30;99.90
25825;DHT22;13658;44.534;18.694;2022-09-20T06:52:06;8.20;99.90
25825;DHT22;13658;44.534;18.694;2022-09-20T06:54:32;8.60;99.90
25825;DHT22;13658;44.534;18.694;2022-09-20T06:57:02;8.90;99.90
25825;DHT22;13658;44.534;18.694;2022-09-20T06:59:29;9.60;99.90
25825;DHT22;13658;44.534;18.694;2022-09-20T07:01:54;10.10;99.90
25825;DHT22;13658;44.534;18.694;2022-09-20T07:04:21;10.60;99.90
25825;DHT22;13658;44.534;18.694;2022-09-20T07:06:47;11.30;99.90
25825;DHT22;13658;44.534;18.694;2022-09-20T07:09:14;11.10;99.90
25825;DHT22;13658;44.534;18.694;2022-09-20T07:11:40;11.70;99.90
25825;DHT22;13658;44.534;18.694;2022-09-20T07:14:06;11.80;99.90
25825;DHT22;13658;44.534;18.694;2022-09-20T07:16:32;11.90;99.90
25825;DHT22;13658;44.534;18.694;2022-09-20T07:18:58;12.30;99.90
25825;DHT22;13658;44.534;18.694;2022-09-20T07:21:25;12.90;99.90
25825;DHT22;13658;44.534;18.694;2022-09-20T07:23:51;12.80;99.90
25825;DHT22;13658;44.534;18.694;2022-09-20T07:26:24;13.00;99.90
25825;DHT22;13658;44.534;18.694;2022-09-20T07:28:51;13.60;99.90
25825;DHT22;13658;44.534;18.694;2022-09-20T07:31:19;14.10;99.90
25825;DHT22;13658;44.534;18.694;2022-09-20T07:33:45;14.70;99.90
25825;DHT22;13658;44.534;18.694;2022-09-20T07:36:11;14.80;99.90
25825;DHT22;13658;44.534;18.694;2022-09-20T07:38:41;14.90;99.90
25825;DHT22;13658;44.534;18.694;2022-09-20T07:41:08;15.00;99.90
25825;DHT22;13658;44.534;18.694;2022-09-20T07:43:35;15.30;99.90
25825;DHT22;13658;44.534;18.694;2022-09-20T07:46:01;15.60;99.90
25825;DHT22;13658;44.534;18.694;2022-09-20T07:48:32;16.00;99.90
25825;DHT22;13658;44.534;18.694;2022-09-20T07:51:03;16.10;99.90
25825;DHT22;13658;44.534;18.694;2022-09-20T07:53:30;16.40;99.90
25825;DHT22;13658;44.534;18.694;2022-09-20T07:56:09;16.60;99.90
25825;DHT22;13658;44.534;18.694;2022-09-20T07:58:35;16.30;99.90
25825;DHT22;13658;44.534;18.694;2022-09-20T08:01:04;16.30;99.90
25825;DHT22;13658;44.534;18.694;2022-09-20T08:03:31;16.10;99.90
25825;DHT22;13658;44.534;18.694;2022-09-20T08:06:06;17.20;99.90
25825;DHT22;13658;44.534;18.694;2022-09-20T08:08:34;17.30;99.90
25825;DHT22;13658;44.534;18.694;2022-09-20T08:11:09;16.00;99.90
25825;DHT22;13658;44.534;18.694;2022-09-20T08:13:36;16.30;99.90
25825;DHT22;13658;44.534;18.694;2022-09-20T08:16:05;15.90;99.90
25825;DHT22;13658;44.534;18.694;2022-09-20T08:18:33;17.00;99.90
25825;DHT22;13658;44.534;18.694;2022-09-20T08:21:07;16.50;99.90
25825;DHT22;13658;44.534;18.694;2022-09-20T08:23:38;16.70;99.90
25825;DHT22;13658;44.534;18.694;2022-09-20T08:26:07;16.70;99.90
25825;DHT22;13658;44.534;18.694;2022-09-20T08:28:33;16.10;99.90
25825;DHT22;13658;44.534;18.694;2022-09-20T08:31:08;15.60;99.90
25825;DHT22;13658;44.534;18.694;2022-09-20T08:33:35;15.50;99.90
25825;DHT22;13658;44.534;18.694;2022-09-20T08:36:07;16.90;99.90
25825;DHT22;13658;44.534;18.694;2022-09-20T08:38:34;18.00;99.90
25825;DHT22;13658;44.534;18.694;2022-09-20T08:41:28;18.00;99.90
25825;DHT22;13658;44.534;18.694;2022-09-20T08:43:56;17.40;99.90
25825;DHT22;13658;44.534;18.694;2022-09-20T08:46:38;17.80;99.90
25825;DHT22;13658;44.534;18.694;2022-09-20T08:49:05;18.40;99.90
25825;DHT22;13658;44.534;18.694;2022-09-20T08:51:39;18.30;99.90
25825;DHT22;13658;44.534;18.694;2022-09-20T08:54:07;18.30;99.90
25825;DHT22;13658;44.534;18.694;2022-09-20T08:56:40;18.30;99.90
25825;DHT22;13658;44.534;18.694;2022-09-20T08:59:15;17.70;99.90
25825;DHT22;13658;44.534;18.694;2022-09-20T09:01:42;17.90;99.90
25825;DHT22;13658;44.534;18.694;2022-09-20T09:04:17;18.00;99.90
25825;DHT22;13658;44.534;18.694;2022-09-20T09:06:45;17.80;99.90
25825;DHT22;13658;44.534;18.694;2022-09-20T09:09:22;18.40;99.90
25825;DHT22;13658;44.534;18.694;2022-09-20T09:11:50;19.60;99.90
25825;DHT22;13658;44.534;18.694;2022-09-20T09:14:26;19.10;99.90
25825;DHT22;13658;44.534;18.694;2022-09-20T09:17:12;18.90;99.90
25825;DHT22;13658;44.534;18.694;2022-09-20T09:19:44;18.60;99.90
25825;DHT22;13658;44.534;18.694;2022-09-20T09:22:18;19.00;99.90
25825;DHT22;13658;44.534;18.694;2022-09-20T09:24:44;19.20;99.90
25825;DHT22;13658;44.534;18.694;2022-09-20T09:27:18;19.60;99.90
25825;DHT22;13658;44.534;18.694;2022-09-20T09:29:49;20.10;99.90
25825;DHT22;13658;44.534;18.694;2022-09-20T09:32:33;20.10;99.90
25825;DHT22;13658;44.534;18.694;2022-09-20T09:35:31;19.10;99.90
25825;DHT22;13658;44.534;18.694;2022-09-20T09:38:01;18.40;99.90
25825;DHT22;13658;44.534;18.694;2022-09-20T09:40:28;18.80;99.90
25825;DHT22;13658;44.534;18.694;2022-09-20T09:42:58;19.20;99.90
25825;DHT22;13658;44.534;18.694;2022-09-20T09:45:25;20.40;99.90
25825;DHT22;13658;44.534;18.694;2022-09-20T09:47:55;20.10;99.90
25825;DHT22;13658;44.534;18.694;2022-09-20T09:50:29;19.70;99.90
25825;DHT22;13658;44.534;18.694;2022-09-20T09:53:08;19.70;99.90
25825;DHT22;13658;44.534;18.694;2022-09-20T09:55:58;20.10;99.90
25825;DHT22;13658;44.534;18.694;2022-09-20T10:01:41;19.50;99.90
25825;DHT22;13658;44.534;18.694;2022-09-20T10:04:26;19.30;99.90
25825;DHT22;13658;44.534;18.694;2022-09-20T10:09:57;20.40;99.90
25825;DHT22;13658;44.534;18.694;2022-09-20T10:26:07;20.80;99.90
25825;DHT22;13658;44.534;18.694;2022-09-20T10:29:33;21.70;99.90
25825;DHT22;13658;44.534;18.694;2022-09-20T10:37:00;23.20;99.90
25825;DHT22;13658;44.534;18.694;2022-09-20T10:39:38;23.20;99.90
25825;DHT22;13658;44.534;18.694;2022-09-20T10:42:41;22.60;99.90
25825;DHT22;13658;44.534;18.694;2022-09-20T10:48:19;22.40;99.90
25825;DHT22;13658;44.534;18.694;2022-09-20T10:50:52;22.10;99.90
25825;DHT22;13658;44.534;18.694;2022-09-20T10:56:36;20.80;99.90
25825;DHT22;13658;44.534;18.694;2022-09-20T10:59:29;19.70;99.90
25825;DHT22;13658;44.534;18.694;2022-09-20T11:05:13;19.70;99.90
25825;DHT22;13658;44.534;18.694;2022-09-20T11:10:36;18.80;99.90
25825;DHT22;13658;44.534;18.694;2022-09-20T11:13:40;19.10;99.90
25825;DHT22;13658;44.534;18.694;2022-09-20T11:16:22;18.30;99.90
25825;DHT22;13658;44.534;18.694;2022-09-20T11:18:58;18.00;99.90
25825;DHT22;13658;44.534;18.694;2022-09-20T11:21:33;18.20;99.90
25825;DHT22;13658;44.534;18.694;2022-09-20T11:26:55;18.10;99.90
25825;DHT22;13658;44.534;18.694;2022-09-20T11:29:33;17.90;99.90
25825;DHT22;13658;44.534;18.694;2022-09-20T11:32:21;17.90;99.90
25825;DHT22;13658;44.534;18.694;2022-09-20T11:34:55;18.00;99.90
25825;DHT22;13658;44.534;18.694;2022-09-20T11:37:29;18.00;99.90
25825;DHT22;13658;44.534;18.694;2022-09-20T11:40:03;17.60;99.90
25825;DHT22;13658;44.534;18.694;2022-09-20T11:42:33;17.80;99.90
25825;DHT22;13658;44.534;18.694;2022-09-20T11:45:02;17.80;99.90
25825;DHT22;13658;44.534;18.694;2022-09-20T11:47:39;17.70;99.90
25825;DHT22;13658;44.534;18.694;2022-09-20T11:58:07;18.50;99.90
25825;DHT22;13658;44.534;18.694;2022-09-20T12:00:39;18.70;99.90
25825;DHT22;13658;44.534;18.694;2022-09-20T12:06:37;18.50;99.90
25825;DHT22;13658;44.534;18.694;2022-09-20T12:08:49;18.40;99.90
25825;DHT22;13658;44.534;18.694;2022-09-20T12:11:24;18.30;99.90
25825;DHT22;13658;44.534;18.694;2022-09-20T12:14:24;18.30;99.90
25825;DHT22;13658;44.534;18.694;2022-09-20T12:16:51;18.30;99.90
25825;DHT22;13658;44.534;18.694;2022-09-20T12:24:32;18.10;99.90
25825;DHT22;13658;44.534;18.694;2022-09-20T12:30:23;18.00;99.90
25825;DHT22;13658;44.534;18.694;2022-09-20T12:32:51;17.90;99.90
25825;DHT22;13658;44.534;18.694;2022-09-20T12:41:06;17.80;99.90
25825;DHT22;13658;44.534;18.694;2022-09-20T12:43:36;17.50;99.90
25825;DHT22;13658;44.534;18.694;2022-09-20T12:46:03;17.20;99.90
25825;DHT22;13658;44.534;18.694;2022-09-20T12:48:34;17.20;99.90
25825;DHT22;13658;44.534;18.694;2022-09-20T12:54:08;17.10;99.90
25825;DHT22;13658;44.534;18.694;2022-09-20T12:56:38;17.20;99.90
25825;DHT22;13658;44.534;18.694;2022-09-20T12:59:19;17.30;99.90
25825;DHT22;13658;44.534;18.694;2022-09-20T13:01:46;17.30;99.90
25825;DHT22;13658;44.534;18.694;2022-09-20T13:04:50;17.40;99.90
25825;DHT22;13658;44.534;18.694;2022-09-20T13:07:40;17.50;99.90
25825;DHT22;13658;44.534;18.694;2022-09-20T13:10:40;17.50;99.90
25825;DHT22;13658;44.534;18.694;2022-09-20T13:13:28;17.70;99.90
25825;DHT22;13658;44.534;18.694;2022-09-20T13:15:55;17.70;99.90
25825;DHT22;13658;44.534;18.694;2022-09-20T13:18:24;17.60;99.90
25825;DHT22;13658;44.534;18.694;2022-09-20T13:20:52;17.60;99.90
25825;DHT22;13658;44.534;18.694;2022-09-20T13:23:27;17.60;99.90
25825;DHT22;13658;44.534;18.694;2022-09-20T13:25:56;17.60;99.90
25825;DHT22;13658;44.534;18.694;2022-09-20T13:28:49;17.40;99.90
25825;DHT22;13658;44.534;18.694;2022-09-20T13:33:46;17.30;99.90
25825;DHT22;13658;44.534;18.694;2022-09-20T13:36:13;17.30;99.90
25825;DHT22;13658;44.534;18.694;2022-09-20T13:38:39;17.10;99.90
25825;DHT22;13658;44.534;18.694;2022-09-20T13:41:10;17.00;99.90
25825;DHT22;13658;44.534;18.694;2022-09-20T13:43:44;17.10;99.90
25825;DHT22;13658;44.534;18.694;2022-09-20T13:46:17;17.00;99.90
25825;DHT22;13658;44.534;18.694;2022-09-20T13:48:47;16.90;99.90
25825;DHT22;13658;44.534;18.694;2022-09-20T13:51:17;16.90;99.90
25825;DHT22;13658;44.534;18.694;2022-09-20T13:53:44;16.90;99.90
25825;DHT22;13658;44.534;18.694;2022-09-20T13:56:27;16.90;99.90
25825;DHT22;13658;44.534;18.694;2022-09-20T13:58:54;16.80;99.90
25825;DHT22;13658;44.534;18.694;2022-09-20T14:01:35;16.70;99.90
25825;DHT22;13658;44.534;18.694;2022-09-20T14:04:08;16.60;99.90
25825;DHT22;13658;44.534;18.694;2022-09-20T14:06:38;16.40;99.90
25825;DHT22;13658;44.534;18.694;2022-09-20T14:09:05;16.30;99.90
25825;DHT22;13658;44.534;18.694;2022-09-20T14:11:32;16.20;99.90
25825;DHT22;13658;44.534;18.694;2022-09-20T14:14:00;16.00;99.90
25825;DHT22;13658;44.534;18.694;2022-09-20T14:16:38;15.90;99.90
25825;DHT22;13658;44.534;18.694;2022-09-20T14:19:05;15.90;99.90
25825;DHT22;13658;44.534;18.694;2022-09-20T14:21:35;15.90;99.90
25825;DHT22;13658;44.534;18.694;2022-09-20T14:26:41;15.90;99.90
25825;DHT22;13658;44.534;18.694;2022-09-20T14:35:00;15.70;99.90
25825;DHT22;13658;44.534;18.694;2022-09-20T14:37:34;15.70;99.90
25825;DHT22;13658;44.534;18.694;2022-09-20T14:40:04;15.80;99.90
25825;DHT22;13658;44.534;18.694;2022-09-20T14:42:35;15.80;99.90
25825;DHT22;13658;44.534;18.694;2022-09-20T14:45:06;15.80;99.90
25825;DHT22;13658;44.534;18.694;2022-09-20T14:47:54;15.80;99.90
25825;DHT22;13658;44.534;18.694;2022-09-20T14:50:25;15.90;99.90
25825;DHT22;13658;44.534;18.694;2022-09-20T14:53:03;15.70;99.90
25825;DHT22;13658;44.534;18.694;2022-09-20T14:55:30;15.80;99.90
25825;DHT22;13658;44.534;18.694;2022-09-20T14:58:12;15.90;99.90
25825;DHT22;13658;44.534;18.694;2022-09-20T15:00:58;16.00;99.90
25825;DHT22;13658;44.534;18.694;2022-09-20T15:03:31;15.90;99.90
25825;DHT22;13658;44.534;18.694;2022-09-20T15:05:58;15.80;99.90
25825;DHT22;13658;44.534;18.694;2022-09-20T15:08:24;15.70;99.90
25825;DHT22;13658;44.534;18.694;2022-09-20T15:10:51;15.50;99.90
25825;DHT22;13658;44.534;18.694;2022-09-20T15:13:17;15.50;99.90
25825;DHT22;13658;44.534;18.694;2022-09-20T15:15:44;15.50;99.90
25825;DHT22;13658;44.534;18.694;2022-09-20T15:18:23;15.40;99.90
25825;DHT22;13658;44.534;18.694;2022-09-20T15:20:52;15.40;99.90
25825;DHT22;13658;44.534;18.694;2022-09-20T15:23:19;15.30;99.90
25825;DHT22;13658;44.534;18.694;2022-09-20T15:25:47;15.20;99.90
25825;DHT22;13658;44.534;18.694;2022-09-20T15:28:15;15.00;99.90
25825;DHT22;13658;44.534;18.694;2022-09-20T15:30:43;15.00;99.90
25825;DHT22;13658;44.534;18.694;2022-09-20T15:33:09;14.80;99.90
25825;DHT22;13658;44.534;18.694;2022-09-20T15:35:37;14.80;99.90
25825;DHT22;13658;44.534;18.694;2022-09-20T15:38:03;14.80;99.90
25825;DHT22;13658;44.534;18.694;2022-09-20T15:40:30;14.70;99.90
25825;DHT22;13658;44.534;18.694;2022-09-20T15:42:57;14.20;99.90
25825;DHT22;13658;44.534;18.694;2022-09-20T15:45:24;14.00;99.90
25825;DHT22;13658;44.534;18.694;2022-09-20T15:47:51;13.90;99.90
25825;DHT22;13658;44.534;18.694;2022-09-20T15:50:20;13.90;99.90
25825;DHT22;13658;44.534;18.694;2022-09-20T15:52:48;13.90;99.90
25825;DHT22;13658;44.534;18.694;2022-09-20T15:55:17;13.90;99.90
25825;DHT22;13658;44.534;18.694;2022-09-20T15:57:44;14.00;99.90
25825;DHT22;13658;44.534;18.694;2022-09-20T16:00:10;14.00;99.90
25825;DHT22;13658;44.534;18.694;2022-09-20T16:02:36;13.90;99.90
25825;DHT22;13658;44.534;18.694;2022-09-20T16:05:03;13.90;99.90
25825;DHT22;13658;44.534;18.694;2022-09-20T16:07:29;13.70;99.90
25825;DHT22;13658;44.534;18.694;2022-09-20T16:09:55;13.70;99.90
25825;DHT22;13658;44.534;18.694;2022-09-20T16:12:23;13.70;99.90
25825;DHT22;13658;44.534;18.694;2022-09-20T16:14:49;13.70;99.90
25825;DHT22;13658;44.534;18.694;2022-09-20T16:17:16;13.70;99.90
25825;DHT22;13658;44.534;18.694;2022-09-20T16:19:43;13.70;99.90
25825;DHT22;13658;44.534;18.694;2022-09-20T16:22:12;13.60;99.90
25825;DHT22;13658;44.534;18.694;2022-09-20T16:24:38;13.60;99.90
25825;DHT22;13658;44.534;18.694;2022-09-20T16:27:05;13.60;99.90
25825;DHT22;13658;44.534;18.694;2022-09-20T16:29:32;13.60;99.90
25825;DHT22;13658;44.534;18.694;2022-09-20T16:31:59;13.60;99.90
25825;DHT22;13658;44.534;18.694;2022-09-20T16:34:30;13.50;99.90
25825;DHT22;13658;44.534;18.694;2022-09-20T16:37:11;13.40;99.90
25825;DHT22;13658;44.534;18.694;2022-09-20T16:39:39;13.30;99.90
25825;DHT22;13658;44.534;18.694;2022-09-20T16:42:08;13.20;99.90
25825;DHT22;13658;44.534;18.694;2022-09-20T16:44:40;13.10;99.90
25825;DHT22;13658;44.534;18.694;2022-09-20T16:47:10;13.10;99.90
25825;DHT22;13658;44.534;18.694;2022-09-20T16:49:37;13.10;99.90
25825;DHT22;13658;44.534;18.694;2022-09-20T16:52:04;13.00;99.90
25825;DHT22;13658;44.534;18.694;2022-09-20T16:54:30;13.00;99.90
25825;DHT22;13658;44.534;18.694;2022-09-20T16:56:56;12.80;99.90
25825;DHT22;13658;44.534;18.694;2022-09-20T16:59:22;12.70;99.90
25825;DHT22;13658;44.534;18.694;2022-09-20T17:01:49;12.70;99.90
25825;DHT22;13658;44.534;18.694;2022-09-20T17:04:16;12.60;99.90
25825;DHT22;13658;44.534;18.694;2022-09-20T17:06:43;12.50;99.90
25825;DHT22;13658;44.534;18.694;2022-09-20T17:09:10;12.50;99.90
25825;DHT22;13658;44.534;18.694;2022-09-20T17:11:44;12.40;99.90
25825;DHT22;13658;44.534;18.694;2022-09-20T17:14:12;12.40;99.90
25825;DHT22;13658;44.534;18.694;2022-09-20T17:16:39;12.30;99.90
25825;DHT22;13658;44.534;18.694;2022-09-20T17:19:11;12.20;99.90
25825;DHT22;13658;44.534;18.694;2022-09-20T17:21:43;12.10;99.90
25825;DHT22;13658;44.534;18.694;2022-09-20T17:24:14;11.90;99.90
25825;DHT22;13658;44.534;18.694;2022-09-20T17:26:42;11.80;99.90
25825;DHT22;13658;44.534;18.694;2022-09-20T17:29:11;11.80;99.90
25825;DHT22;13658;44.534;18.694;2022-09-20T17:31:44;11.70;99.90
25825;DHT22;13658;44.534;18.694;2022-09-20T17:34:12;11.70;99.90
25825;DHT22;13658;44.534;18.694;2022-09-20T17:36:44;11.60;99.90
25825;DHT22;13658;44.534;18.694;2022-09-20T17:39:12;11.60;99.90
25825;DHT22;13658;44.534;18.694;2022-09-20T17:41:40;11.50;99.90
25825;DHT22;13658;44.534;18.694;2022-09-20T17:44:06;11.50;99.90
25825;DHT22;13658;44.534;18.694;2022-09-20T17:46:38;11.40;99.90
25825;DHT22;13658;44.534;18.694;2022-09-20T17:49:06;11.40;99.90
25825;DHT22;13658;44.534;18.694;2022-09-20T17:51:35;11.30;99.90
25825;DHT22;13658;44.534;18.694;2022-09-20T17:54:02;11.30;99.90
25825;DHT22;13658;44.534;18.694;2022-09-20T17:56:29;11.30;99.90
25825;DHT22;13658;44.534;18.694;2022-09-20T17:59:00;11.30;99.90
25825;DHT22;13658;44.534;18.694;2022-09-20T18:01:28;11.30;99.90
25825;DHT22;13658;44.534;18.694;2022-09-20T18:03:57;11.30;99.90
25825;DHT22;13658;44.534;18.694;2022-09-20T18:06:29;11.40;99.90
25825;DHT22;13658;44.534;18.694;2022-09-20T18:09:00;11.40;99.90
25825;DHT22;13658;44.534;18.694;2022-09-20T18:11:30;11.30;99.90
25825;DHT22;13658;44.534;18.694;2022-09-20T18:13:56;11.20;99.90
25825;DHT22;13658;44.534;18.694;2022-09-20T18:16:23;11.20;99.90
25825;DHT22;13658;44.534;18.694;2022-09-20T18:18:49;11.20;99.90
25825;DHT22;13658;44.534;18.694;2022-09-20T18:21:17;11.30;99.90
25825;DHT22;13658;44.534;18.694;2022-09-20T18:23:44;11.30;99.90
25825;DHT22;13658;44.534;18.694;2022-09-20T18:26:15;11.30;99.90
25825;DHT22;13658;44.534;18.694;2022-09-20T18:31:31;11.20;99.90
25825;DHT22;13658;44.534;18.694;2022-09-20T18:34:05;11.30;99.90
25825;DHT22;13658;44.534;18.694;2022-09-20T18:36:34;11.20;99.90
25825;DHT22;13658;44.534;18.694;2022-09-20T18:39:01;11.20;99.90
25825;DHT22;13658;44.534;18.694;2022-09-20T18:41:29;11.10;99.90
25825;DHT22;13658;44.534;18.694;2022-09-20T18:43:57;10.90;99.90
25825;DHT22;13658;44.534;18.694;2022-09-20T18:46:25;10.80;99.90
25825;DHT22;13658;44.534;18.694;2022-09-20T18:48:53;10.70;99.90
25825;DHT22;13658;44.534;18.694;2022-09-20T18:51:20;10.70;99.90
25825;DHT22;13658;44.534;18.694;2022-09-20T18:53:47;10.70;99.90
25825;DHT22;13658;44.534;18.694;2022-09-20T18:56:26;10.70;99.90
25825;DHT22;13658;44.534;18.694;2022-09-20T18:58:57;10.70;99.90
25825;DHT22;13658;44.534;18.694;2022-09-20T19:01:46;10.60;99.90
25825;DHT22;13658;44.534;18.694;2022-09-20T19:16:05;10.70;99.90
25825;DHT22;13658;44.534;18.694;2022-09-20T19:21:44;10.70;99.90
25825;DHT22;13658;44.534;18.694;2022-09-20T19:26:46;10.70;99.90
25825;DHT22;13658;44.534;18.694;2022-09-20T19:29:20;10.70;99.90
25825;DHT22;13658;44.534;18.694;2022-09-20T19:31:48;10.80;99.90
25825;DHT22;13658;44.534;18.694;2022-09-20T19:34:34;10.90;99.90
25825;DHT22;13658;44.534;18.694;2022-09-20T19:39:35;10.90;99.90
25825;DHT22;13658;44.534;18.694;2022-09-20T19:50:40;10.70;99.90
25825;DHT22;13658;44.534;18.694;2022-09-20T19:53:13;10.60;99.90
25825;DHT22;13658;44.534;18.694;2022-09-20T19:55:49;10.60;99.90
25825;DHT22;13658;44.534;18.694;2022-09-20T19:58:16;10.50;99.90
25825;DHT22;13658;44.534;18.694;2022-09-20T20:00:43;10.50;99.90
25825;DHT22;13658;44.534;18.694;2022-09-20T20:03:13;10.50;99.90
25825;DHT22;13658;44.534;18.694;2022-09-20T20:05:47;10.70;99.90
25825;DHT22;13658;44.534;18.694;2022-09-20T20:11:14;10.80;99.90
25825;DHT22;13658;44.534;18.694;2022-09-20T20:13:50;10.80;99.90
25825;DHT22;13658;44.534;18.694;2022-09-20T20:27:59;11.20;99.90
25825;DHT22;13658;44.534;18.694;2022-09-20T20:30:25;11.20;99.90
25825;DHT22;13658;44.534;18.694;2022-09-20T20:32:55;11.30;99.90
25825;DHT22;13658;44.534;18.694;2022-09-20T20:35:25;11.40;99.90
25825;DHT22;13658;44.534;18.694;2022-09-20T20:37:52;11.40;99.90
25825;DHT22;13658;44.534;18.694;2022-09-20T20:40:18;11.30;99.90
25825;DHT22;13658;44.534;18.694;2022-09-20T20:42:44;11.20;99.90
25825;DHT22;13658;44.534;18.694;2022-09-20T20:45:11;11.00;99.90
25825;DHT22;13658;44.534;18.694;2022-09-20T20:47:38;10.90;99.90
25825;DHT22;13658;44.534;18.694;2022-09-20T20:50:08;10.80;99.90
25825;DHT22;13658;44.534;18.694;2022-09-20T20:52:37;10.60;99.90
25825;DHT22;13658;44.534;18.694;2022-09-20T20:55:04;10.50;99.90
25825;DHT22;13658;44.534;18.694;2022-09-20T20:57:30;10.40;99.90
25825;DHT22;13658;44.534;18.694;2022-09-20T20:59:57;10.50;99.90
25825;DHT22;13658;44.534;18.694;2022-09-20T21:02:23;10.50;99.90
25825;DHT22;13658;44.534;18.694;2022-09-20T21:04:48;10.50;99.90
25825;DHT22;13658;44.534;18.694;2022-09-20T21:07:14;10.50;99.90
25825;DHT22;13658;44.534;18.694;2022-09-20T21:09:41;10.40;99.90
25825;DHT22;13658;44.534;18.694;2022-09-20T21:12:07;10.30;99.90
25825;DHT22;13658;44.534;18.694;2022-09-20T21:14:33;10.30;99.90
25825;DHT22;13658;44.534;18.694;2022-09-20T21:16:59;10.20;99.90